sensor_id;sensor_type;location;lat;lon;timestamp;P1;durP1;ratioP1;P2;durP2;ratioP2
26914;SDS011;14480;52.608;13.416;2022-11-23T06:51:22;82.30;;;34.17;;
26914;SDS011;14480;52.608;13.416;2022-11-23T06:56:30;90.78;;;33.15;;
26914;SDS011;14480;52.608;13.416;2022-11-23T07:01:34;81.03;;;32.20;;
26914;SDS011;14480;52.608;13.416;2022-11-23T07:06:42;85.63;;;33.90;;
26914;SDS011;14480;52.608;13.416;2022-11-23T07:11:57;71.55;;;31.52;;
26914;SDS011;14480;52.608;13.416;2022-11-23T07:17:01;74.32;;;33.10;;
26914;SDS011;14480;52.608;13.416;2022-11-23T07:22:09;81.18;;;33.60;;
26914;SDS011;14480;52.608;13.416;2022-11-23T07:27:15;78.07;;;33.42;;
26914;SDS011;14480;52.608;13.416;2022-11-23T07:32:19;83.28;;;34.72;;
26914;SDS011;14480;52.608;13.416;2022-11-23T07:37:24;80.88;;;32.75;;
26914;SDS011;14480;52.608;13.416;2022-11-23T07:42:29;81.55;;;33.28;;
26914;SDS011;14480;52.608;13.416;2022-11-23T07:47:42;83.68;;;33.67;;
26914;SDS011;14480;52.608;13.416;2022-11-23T07:52:47;82.05;;;33.83;;
26914;SDS011;14480;52.608;13.416;2022-11-23T07:57:51;77.05;;;32.60;;
26914;SDS011;14480;52.608;13.416;2022-11-23T08:02:56;75.87;;;33.50;;
26914;SDS011;14480;52.608;13.416;2022-11-23T08:08:21;75.18;;;33.38;;
26914;SDS011;14480;52.608;13.416;2022-11-23T08:13:25;75.75;;;31.90;;
26914;SDS011;14480;52.608;13.416;2022-11-23T08:18:29;69.25;;;30.67;;
26914;SDS011;14480;52.608;13.416;2022-11-23T08:23:36;70.22;;;31.65;;
26914;SDS011;14480;52.608;13.416;2022-11-23T08:28:42;70.40;;;31.27;;
26914;SDS011;14480;52.608;13.416;2022-11-23T08:33:49;80.03;;;33.10;;
26914;SDS011;14480;52.608;13.416;2022-11-23T08:38:55;66.43;;;28.93;;
26914;SDS011;14480;52.608;13.416;2022-11-23T08:44:09;62.38;;;28.02;;
26914;SDS011;14480;52.608;13.416;2022-11-23T08:49:15;56.53;;;27.15;;
26914;SDS011;14480;52.608;13.416;2022-11-23T08:54:21;57.25;;;27.90;;
26914;SDS011;14480;52.608;13.416;2022-11-23T08:59:29;53.03;;;25.95;;
26914;SDS011;14480;52.608;13.416;2022-11-23T09:04:44;58.47;;;26.02;;
26914;SDS011;14480;52.608;13.416;2022-11-23T09:09:49;60.28;;;26.42;;
26914;SDS011;14480;52.608;13.416;2022-11-23T09:14:54;51.90;;;25.58;;
26914;SDS011;14480;52.608;13.416;2022-11-23T09:20:01;49.45;;;23.95;;
26914;SDS011;14480;52.608;13.416;2022-11-23T09:25:07;54.83;;;25.38;;
26914;SDS011;14480;52.608;13.416;2022-11-23T09:30:14;51.50;;;23.83;;
26914;SDS011;14480;52.608;13.416;2022-11-23T09:35:18;53.30;;;25.63;;
26914;SDS011;14480;52.608;13.416;2022-11-23T09:40:23;51.83;;;24.52;;
26914;SDS011;14480;52.608;13.416;2022-11-23T09:45:33;50.00;;;23.92;;
26914;SDS011;14480;52.608;13.416;2022-11-23T09:50:45;47.78;;;22.98;;
26914;SDS011;14480;52.608;13.416;2022-11-23T09:55:52;45.40;;;23.35;;
26914;SDS011;14480;52.608;13.416;2022-11-23T10:01:02;49.72;;;23.75;;
26914;SDS011;14480;52.608;13.416;2022-11-23T10:06:15;47.67;;;24.13;;
26914;SDS011;14480;52.608;13.416;2022-11-23T10:11:38;49.50;;;22.77;;
26914;SDS011;14480;52.608;13.416;2022-11-23T10:16:52;47.67;;;23.58;;
26914;SDS011;14480;52.608;13.416;2022-11-23T10:22:08;45.93;;;22.23;;
26914;SDS011;14480;52.608;13.416;2022-11-23T10:27:23;47.47;;;21.92;;
26914;SDS011;14480;52.608;13.416;2022-11-23T10:32:30;45.60;;;21.92;;
26914;SDS011;14480;52.608;13.416;2022-11-23T10:37:37;51.58;;;24.25;;
26914;SDS011;14480;52.608;13.416;2022-11-23T10:42:45;47.40;;;26.30;;
26914;SDS011;14480;52.608;13.416;2022-11-23T10:47:53;51.53;;;25.73;;
26914;SDS011;14480;52.608;13.416;2022-11-23T10:53:00;51.55;;;24.88;;
26914;SDS011;14480;52.608;13.416;2022-11-23T10:58:24;49.17;;;23.52;;
26914;SDS011;14480;52.608;13.416;2022-11-23T11:03:53;51.25;;;26.48;;
26914;SDS011;14480;52.608;13.416;2022-11-23T11:09:02;49.65;;;25.70;;
26914;SDS011;14480;52.608;13.416;2022-11-23T11:14:17;48.35;;;24.13;;
26914;SDS011;14480;52.608;13.416;2022-11-23T11:19:25;50.70;;;24.35;;
26914;SDS011;14480;52.608;13.416;2022-11-23T11:24:35;54.85;;;25.45;;
26914;SDS011;14480;52.608;13.416;2022-11-23T11:29:47;40.22;;;20.95;;
26914;SDS011;14480;52.608;13.416;2022-11-23T11:34:54;48.00;;;23.48;;
26914;SDS011;14480;52.608;13.416;2022-11-23T11:40:06;49.15;;;22.60;;
26914;SDS011;14480;52.608;13.416;2022-11-23T11:45:17;45.50;;;22.27;;
26914;SDS011;14480;52.608;13.416;2022-11-23T11:50:26;40.80;;;21.58;;
26914;SDS011;14480;52.608;13.416;2022-11-23T11:55:38;42.25;;;21.35;;
26914;SDS011;14480;52.608;13.416;2022-11-23T12:00:55;41.58;;;21.42;;
26914;SDS011;14480;52.608;13.416;2022-11-23T12:06:07;42.05;;;22.30;;
26914;SDS011;14480;52.608;13.416;2022-11-23T12:11:16;42.08;;;22.40;;
26914;SDS011;14480;52.608;13.416;2022-11-23T12:16:26;46.25;;;21.65;;
26914;SDS011;14480;52.608;13.416;2022-11-23T12:21:43;42.75;;;21.80;;
26914;SDS011;14480;52.608;13.416;2022-11-23T12:27:06;38.97;;;20.95;;
26914;SDS011;14480;52.608;13.416;2022-11-23T12:32:21;41.42;;;21.25;;
26914;SDS011;14480;52.608;13.416;2022-11-23T12:37:35;39.38;;;20.10;;
26914;SDS011;14480;52.608;13.416;2022-11-23T12:42:48;40.75;;;21.02;;
26914;SDS011;14480;52.608;13.416;2022-11-23T12:47:58;44.70;;;20.77;;
26914;SDS011;14480;52.608;13.416;2022-11-23T12:53:28;41.38;;;20.95;;
26914;SDS011;14480;52.608;13.416;2022-11-23T12:58:44;47.35;;;21.17;;
26914;SDS011;14480;52.608;13.416;2022-11-23T13:09:49;38.20;;;18.50;;
26914;SDS011;14480;52.608;13.416;2022-11-23T13:15:05;39.90;;;20.48;;
26914;SDS011;14480;52.608;13.416;2022-11-23T13:20:34;46.00;;;21.70;;
26914;SDS011;14480;52.608;13.416;2022-11-23T13:26:13;39.10;;;19.95;;
26914;SDS011;14480;52.608;13.416;2022-11-23T13:31:20;41.95;;;20.40;;
26914;SDS011;14480;52.608;13.416;2022-11-23T13:36:38;43.40;;;20.17;;
26914;SDS011;14480;52.608;13.416;2022-11-23T13:42:04;42.97;;;19.77;;
26914;SDS011;14480;52.608;13.416;2022-11-23T13:47:18;38.58;;;19.60;;
26914;SDS011;14480;52.608;13.416;2022-11-23T13:52:27;38.27;;;20.20;;
26914;SDS011;14480;52.608;13.416;2022-11-23T13:57:32;40.58;;;21.38;;
26914;SDS011;14480;52.608;13.416;2022-11-23T14:02:36;37.30;;;20.88;;
26914;SDS011;14480;52.608;13.416;2022-11-23T14:07:41;39.85;;;20.95;;
26914;SDS011;14480;52.608;13.416;2022-11-23T14:12:48;42.20;;;20.92;;
26914;SDS011;14480;52.608;13.416;2022-11-23T14:18:06;40.47;;;20.48;;
26914;SDS011;14480;52.608;13.416;2022-11-23T14:23:42;39.20;;;20.67;;
26914;SDS011;14480;52.608;13.416;2022-11-23T14:29:11;43.92;;;20.30;;
26914;SDS011;14480;52.608;13.416;2022-11-23T14:34:30;44.05;;;20.38;;
26914;SDS011;14480;52.608;13.416;2022-11-23T14:39:43;50.45;;;22.77;;
26914;SDS011;14480;52.608;13.416;2022-11-23T14:45:00;49.30;;;23.85;;
26914;SDS011;14480;52.608;13.416;2022-11-23T14:50:18;62.15;;;28.98;;
26914;SDS011;14480;52.608;13.416;2022-11-23T14:55:30;58.22;;;29.73;;
26914;SDS011;14480;52.608;13.416;2022-11-23T15:00:40;70.45;;;30.55;;
26914;SDS011;14480;52.608;13.416;2022-11-23T15:05:48;62.08;;;30.98;;
26914;SDS011;14480;52.608;13.416;2022-11-23T15:10:58;66.32;;;32.90;;
26914;SDS011;14480;52.608;13.416;2022-11-23T15:16:07;69.68;;;32.85;;
26914;SDS011;14480;52.608;13.416;2022-11-23T15:21:16;70.68;;;33.63;;
26914;SDS011;14480;52.608;13.416;2022-11-23T15:31:50;76.72;;;35.33;;
26914;SDS011;14480;52.608;13.416;2022-11-23T15:37:14;78.30;;;35.88;;
26914;SDS011;14480;52.608;13.416;2022-11-23T15:42:21;77.15;;;35.15;;
26914;SDS011;14480;52.608;13.416;2022-11-23T15:47:27;73.53;;;33.38;;
26914;SDS011;14480;52.608;13.416;2022-11-23T15:52:33;71.07;;;33.20;;
26914;SDS011;14480;52.608;13.416;2022-11-23T15:57:41;70.22;;;33.72;;
26914;SDS011;14480;52.608;13.416;2022-11-23T16:02:44;70.45;;;32.78;;
26914;SDS011;14480;52.608;13.416;2022-11-23T16:07:51;78.45;;;33.42;;
26914;SDS011;14480;52.608;13.416;2022-11-23T16:12:58;73.63;;;33.05;;
26914;SDS011;14480;52.608;13.416;2022-11-23T16:18:03;67.22;;;32.08;;
26914;SDS011;14480;52.608;13.416;2022-11-23T16:23:10;65.85;;;32.08;;
26914;SDS011;14480;52.608;13.416;2022-11-23T16:28:23;68.13;;;32.25;;
26914;SDS011;14480;52.608;13.416;2022-11-23T16:33:30;69.78;;;31.98;;
26914;SDS011;14480;52.608;13.416;2022-11-23T16:38:35;64.82;;;30.45;;
26914;SDS011;14480;52.608;13.416;2022-11-23T16:43:40;70.05;;;32.08;;
26914;SDS011;14480;52.608;13.416;2022-11-23T16:48:44;68.15;;;32.35;;
26914;SDS011;14480;52.608;13.416;2022-11-23T16:53:53;74.05;;;35.03;;
26914;SDS011;14480;52.608;13.416;2022-11-23T16:59:20;74.20;;;34.58;;
26914;SDS011;14480;52.608;13.416;2022-11-23T17:04:24;71.68;;;33.90;;
26914;SDS011;14480;52.608;13.416;2022-11-23T17:09:31;84.60;;;39.40;;
26914;SDS011;14480;52.608;13.416;2022-11-23T17:14:37;85.03;;;39.88;;
26914;SDS011;14480;52.608;13.416;2022-11-23T17:19:42;87.75;;;41.25;;
26914;SDS011;14480;52.608;13.416;2022-11-23T17:24:49;96.03;;;43.40;;
26914;SDS011;14480;52.608;13.416;2022-11-23T17:29:57;96.32;;;44.03;;
26914;SDS011;14480;52.608;13.416;2022-11-23T17:35:06;104.35;;;45.10;;
26914;SDS011;14480;52.608;13.416;2022-11-23T17:40:12;102.43;;;47.00;;
26914;SDS011;14480;52.608;13.416;2022-11-23T17:45:21;110.35;;;47.63;;
26914;SDS011;14480;52.608;13.416;2022-11-23T17:55:31;105.55;;;46.70;;
26914;SDS011;14480;52.608;13.416;2022-11-23T18:00:37;107.13;;;47.65;;
26914;SDS011;14480;52.608;13.416;2022-11-23T18:10:44;109.03;;;47.33;;
26914;SDS011;14480;52.608;13.416;2022-11-23T18:15:49;112.93;;;49.42;;
26914;SDS011;14480;52.608;13.416;2022-11-23T18:20:54;107.93;;;48.10;;
26914;SDS011;14480;52.608;13.416;2022-11-23T18:25:58;105.38;;;47.97;;
26914;SDS011;14480;52.608;13.416;2022-11-23T18:31:11;111.68;;;48.05;;
26914;SDS011;14480;52.608;13.416;2022-11-23T18:36:15;107.45;;;47.60;;
26914;SDS011;14480;52.608;13.416;2022-11-23T18:41:19;103.45;;;48.95;;
26914;SDS011;14480;52.608;13.416;2022-11-23T18:46:25;101.53;;;46.72;;
26914;SDS011;14480;52.608;13.416;2022-11-23T18:51:30;103.13;;;46.97;;
26914;SDS011;14480;52.608;13.416;2022-11-23T18:56:35;110.65;;;48.25;;
26914;SDS011;14480;52.608;13.416;2022-11-23T19:01:40;111.68;;;48.80;;
26914;SDS011;14480;52.608;13.416;2022-11-23T19:07:06;104.95;;;47.55;;
26914;SDS011;14480;52.608;13.416;2022-11-23T19:12:10;106.80;;;47.50;;
26914;SDS011;14480;52.608;13.416;2022-11-23T19:17:16;109.63;;;48.13;;
26914;SDS011;14480;52.608;13.416;2022-11-23T19:27:23;104.65;;;47.30;;
26914;SDS011;14480;52.608;13.416;2022-11-23T19:32:31;107.20;;;48.05;;
26914;SDS011;14480;52.608;13.416;2022-11-23T19:42:40;100.38;;;45.15;;
26914;SDS011;14480;52.608;13.416;2022-11-23T19:47:46;101.97;;;46.63;;
26914;SDS011;14480;52.608;13.416;2022-11-23T19:58:13;104.68;;;46.83;;
26914;SDS011;14480;52.608;13.416;2022-11-23T20:03:19;107.65;;;46.88;;
26914;SDS011;14480;52.608;13.416;2022-11-23T20:08:25;109.47;;;48.60;;
26914;SDS011;14480;52.608;13.416;2022-11-23T20:13:29;107.78;;;49.85;;
26914;SDS011;14480;52.608;13.416;2022-11-23T20:18:34;115.97;;;49.63;;
26914;SDS011;14480;52.608;13.416;2022-11-23T20:23:54;126.85;;;51.88;;
26914;SDS011;14480;52.608;13.416;2022-11-23T20:29:06;117.97;;;53.45;;
26914;SDS011;14480;52.608;13.416;2022-11-23T20:39:23;118.88;;;52.13;;
26914;SDS011;14480;52.608;13.416;2022-11-23T20:44:30;119.93;;;53.90;;
26914;SDS011;14480;52.608;13.416;2022-11-23T20:49:39;138.05;;;57.15;;
26914;SDS011;14480;52.608;13.416;2022-11-23T20:54:43;131.65;;;54.15;;
26914;SDS011;14480;52.608;13.416;2022-11-23T20:59:48;123.90;;;53.45;;
26914;SDS011;14480;52.608;13.416;2022-11-23T21:04:53;135.70;;;58.15;;
26914;SDS011;14480;52.608;13.416;2022-11-23T21:09:57;132.27;;;57.65;;
26914;SDS011;14480;52.608;13.416;2022-11-23T21:15:00;141.88;;;58.45;;
26914;SDS011;14480;52.608;13.416;2022-11-23T21:20:30;141.82;;;59.40;;
26914;SDS011;14480;52.608;13.416;2022-11-23T21:25:39;139.82;;;58.10;;
26914;SDS011;14480;52.608;13.416;2022-11-23T21:30:43;148.77;;;65.95;;
26914;SDS011;14480;52.608;13.416;2022-11-23T21:35:49;140.73;;;61.22;;
26914;SDS011;14480;52.608;13.416;2022-11-23T21:46:01;133.73;;;58.00;;
26914;SDS011;14480;52.608;13.416;2022-11-23T21:51:12;144.13;;;60.80;;
26914;SDS011;14480;52.608;13.416;2022-11-23T21:56:18;144.18;;;59.78;;
26914;SDS011;14480;52.608;13.416;2022-11-23T22:01:23;149.30;;;61.20;;
26914;SDS011;14480;52.608;13.416;2022-11-23T22:06:33;153.82;;;63.85;;
26914;SDS011;14480;52.608;13.416;2022-11-23T22:11:41;161.25;;;65.85;;
26914;SDS011;14480;52.608;13.416;2022-11-23T22:16:46;159.27;;;64.65;;
26914;SDS011;14480;52.608;13.416;2022-11-23T22:21:53;152.02;;;64.15;;
26914;SDS011;14480;52.608;13.416;2022-11-23T22:32:03;150.70;;;61.83;;
26914;SDS011;14480;52.608;13.416;2022-11-23T22:37:09;151.15;;;65.20;;
26914;SDS011;14480;52.608;13.416;2022-11-23T22:47:16;151.50;;;62.58;;
26914;SDS011;14480;52.608;13.416;2022-11-23T22:52:24;162.63;;;65.90;;
